DIVISION OF AGRICULTURAL PHYSICS
INDIAN AGRICULTURAL RESEARCH INSTITUTE
NEW DELHI, INDIA-110012
Phone No. 011-25843014

(IARI: Latitude: 280 38'23"N, Longitude:770 09'27"E., Altitude: 228.61m above msl.)
Duration of data : Last 60 days
Date Max.
Temp.
(oC)
Min.
Temp.
(oC)
Rainfall
(mm)
Wind
Speed
(Kmph)
Wind
Direction-I
Wind
Direction-II
Weather
condition-I
(Code 0-9)
Weather
condition-II
(Code 0-9)
RH-I
(%)
RH-II
(%)
BSS
(hrs)
Evaporation
(mm)
2017-07-25 32.0 25.2 7.60 7.1 E C 1 1 95.0 85.0 6.6 3.7
2017-07-26 31.8 25.1 9.00 5.2 C S 1 1 92.0 72.0 2.7 3.9
2017-07-27 33.6 26.9 0.00 3.8 S S 2 2 76.0 70.0 5.5 4.0
2017-07-28 33.4 27.8 0.00 6.6 SSE S 1 2 80.0 80.0 4.7 3.6
2017-07-29 34.4 25.8 7.80 5.0 NE S 1 0 98.0 68.0 5.1 4.8
2017-07-30 33.5 26.4 0.00 6.4 S SE 1 1 87.0 69.0 3.9 3.9
2017-07-31 33.5 26.2 0.80 5.0 C SE 1 1 92.0 87.0 4.0 3.8
2017-08-01 29.8 25.4 7.60 4.7 W SW 1 1 95.0 79.0 0.0 4.6
2017-08-02 31.0 26.0 1.00 7.6 W W 1 1 86.0 75.0 1.7 3.6
2017-08-03 31.0 26.0 0.00 8.3 W W 1 1 85.0 74.0 0.0 3.3
2017-08-04 34.0 25.6 0.00 12.8 W W 1 1 85.0 69.0 5.1 4.0
2017-08-05 34.0 26.5 0.00 5.9 W SW 1 1 85.0 60.0 1.1 4.2
2017-08-06 34.5 26.8 0.00 3.4 NW NW 1 0 75.0 60.0 2.0 4.0
2017-08-07 36.2 27.0 3.20 3.7 C N 1 2 92.0 71.0 5.4 5.8
2017-08-08 33.8 24.2 67.20 2.3 C E 1 1 98.0 73.0 0.5 4.2
2017-08-09 33.8 26.8 2.40 2.2 C W 6 6 95.0 94.0 2.1 4.6
2017-08-10 31.8 26.2 10.80 2.5 W NW 1 1 92.0 79.0 0.0 3.8
2017-08-11 33.5 26.8 0.00 9.0 W W 1 1 87.0 64.0 1.0 4.0
2017-08-12 34.8 26.4 0.00 13.7 W W 1 1 87.0 69.0 5.5 4.0
2017-08-13 33.6 25.3 0.00 12.3 W W 1 1 94.0 76.0 1.9 4.1
2017-08-14 33.8 25.1 0.00 7.3 W W 0 1 92.0 68.0 1.8 1.4
2017-08-15 34.6 26.1 0.00 5.1 W W 1 1 85.0 65.0 6.8 4.1
2017-08-16 35.7 26.1 0.00 7.9 W NNW 0 1 92.0 57.0 7.4 5.6
2017-08-17 35.5 27.5 0.00 9.6 W W 1 0 86.0 64.0 9.5 5.4
2017-08-18 36.2 27.4 0.00 7.5 W NW 1 0 88.0 60.0 8.5 6.0
2017-08-19 36.8 27.5 27.00 5.8 E E 1 2 92.0 96.0 7.2 6.2
2017-08-20 29.1 25.2 1.00 4.5 E E 0 0 89.0 73.0 0.2 4.6
2017-08-21 34.0 26.4 0.00 5.2 S SE 0 0 91.0 85.0 10.4 5.9
2017-08-22 34.4 26.8 0.00 4.6 E W 0 1 89.0 90.0 8.6 5.2
2017-08-23 33.8 26.5 0.00 3.0 SE SE 1 6 91.0 97.0 2.1 5.1
2017-08-24 33.8 23.8 61.40 2.3 SE SW 1 1 97.0 85.0 0.8 4.4
2017-08-25 33.6 26.0 0.00 2.0 C N 1 1 95.0 77.0 4.6 5.0
2017-08-26 33.5 24.8 3.60 2.6 C NW 1 1 97.0 69.0 2.3 4.8
2017-08-27 33.2 23.0 2.80 2.5 C NE 0 0 93.0 61.0 1.8 4.8
2017-08-28 34.8 24.3 9.60 3.7 E SE 1 0 92.0 76.0 8.6 4.6
2017-08-29 31.2 26.2 1.00 7.1 E E 1 0 95.0 73.0 3.5 4.0
2017-08-30 33.0 26.5 0.00 7.8 E SE 1 0 92.0 74.0 5.8 5.8
2017-08-31 33.8 25.2 3.40 6.2 E SE 1 6 95.0 98.0 5.3 4.1
2017-09-01 31.2 24.0 45.60 3.6 S W 1 1 98.0 81.0 1.1 4.6
2017-09-02 30.8 25.2 4.80 6.3 W N 2 1 87.0 92.0 2.4 4.6
2017-09-03 29.5 23.6 4.00 5.3 W W 0 2 92.0 71.0 1.0 3.5
2017-09-04 33.8 24.8 0.00 3.3 W W 0 0 92.0 70.0 9.9 4.4
2017-09-05 34.2 24.2 0.00 7.0 W NW 0 1 89.0 73.0 9.9 4.5
2017-09-06 33.5 24.8 0.00 5.5 W W 1 0 82.0 68.0 10.0 5.0
2017-09-07 35.0 23.0 0.00 6.1 SW W 1 0 98.0 79.0 8.7 5.0
2017-09-08 32.8 24.8 0.00 3.2 C N 1 0 98.0 64.0 2.7 5.0
2017-09-09 34.0 24.5 0.00 3.9 W W 0 0 97.0 60.0 9.0 5.6
2017-09-10 35.0 24.6 0.00 4.0 C NW 0 0 97.0 53.0 8.4 5.5
2017-09-11 37.0 25.2 0.00 2.6 C N 1 0 97.0 62.0 9.4 6.2
2017-09-12 35.8 24.5 0.00 3.3 W NW 0 0 90.0 50.0 6.4 4.2
2017-09-13 35.8 24.4 0.00 6.0 C NW 0 0 92.0 56.0 7.9 5.0
2017-09-14 35.8 25.0 0.00 2.9 C W 1 1 94.0 58.0 8.4 4.3
2017-09-15 35.0 24.8 0.00 1.9 C N 0 0 90.0 40.0 1.7 3.4
2017-09-16 36.2 25.3 0.00 3.8 C C 2 2 92.0 63.0 9.8 5.0
2017-09-17 31.4 25.0 0.00 3.5 W NW 0 0 82.0 52.0 0.0 3.6
2017-09-18 34.0 24.0 0.00 5.9 W NW 1 0 85.0 58.0 4.7 4.0
2017-09-19 35.6 23.6 0.00 5.3 NW SE 1 1 86.0 55.0 8.3 4.0
2017-09-20 35.6 22.3 0.00 2.3 C NW 1 0 85.0 44.0 4.7 4.5
2017-09-21 37.2 21.6 0.00 2.4 E S 1 1 86.0 60.0 9.0 5.5
2017-09-22 33.7 24.9 0.00 4.5 E NE 1 6 80.0 98.0 1.6 3.7
2017-09-23 27.3 22.1 138.60 6.7 NE 6 0 93.0 0.0 0.0 4.0

Abbrevations used:
I - Observations taken at 7.21 hrs. and II - Observations taken at 14:21 hrs.
Codes:
0 - Fair (clear and slightly clouded), 1 - Variable Sky, 2 - Mainly Overcast, 3 - Sand Storm or Dust Storm,4 - Fog or Thick Dust Haze, 5 - Drizzle, 6 - Rain,7 - Snow or Sleet, 8 - Shower (s), 9 - Thunder Storm with or without Precipitation